Prestupový termín
AUGUST 2006

Prehľad:
hosťovania
prestupy
zamietnuté
neprerokované


schválené hosťovania









P.č. rodné číslo priezvisko, meno odkiaľ
materský oddiel
kam nový oddiel SK dátum schválené do ... pozn.
1 891027 ADAMČEK Ján Tatran Harmanec Metalservis Králiky 200,- 24.08.2006 30.6.2007
2 871213 ADAMOV Róbert MFK Žarnovica ŠK Voznica 300,- 24.08.2006 30.6.2008
3 910908 BABIAK Martin Družst.Čabrad-D.Badín Družst. Bzovík 200,- 24.08.2006 30.6.2009
4 760625 BABIC Branislav ŠK Tempus R.Sobota TJ Uzovská Panica 450,- 24.08.2006 30.6.2007
5 810518 BABINSKÝ Milan MŠK Námestovo Lok.SEZ Kráľovany 450,- 24.08.2006 30.6.2007
6 800111 BAČO Martin Tempus R.Sobota Slovan Hr.Zalužany 450,- 24.08.2006 30.6.2007
7 790107 BAČO Peter ŠK Tempus R.Sobota TJ Uzovská Panica 450,- 24.08.2006 30.6.2007
8 780630 BADAŇ milan Tatran Sučany Dynamo Krpeľany 450,- 24.08.2006 30.6.2007
9 880930 BADÍN Michal Družst. Belá MŠK FOMAT Martin 200 24.08.2006 31.7.2007
10 910326 BADŽGOŇ Ján TJ Olešná Slávia Staškov 300,- 24.08.2006 30.6.2007
11 800423 BALAŠKO Ján Baník Ružina Magnezit Lovinobaňa 300,- 24.08.2006 30.6.2007
12 851126 BALÁŽ Roman ŠK Podbiel MŠK Námestovo 300,- 24.08.2006 31.1.2007
13 901127 BALOG Michal Magnezit Lovinobańa Slovan Divín 200,- 24.08.2006 31.8.2008
14 710909 BALÚN Ján ŠK Podbiel ŠK Tvrdošín 300,- 24.08.2006 30.6.2007
15 911227 BAMBURA Lukáš MFK Detva MFK Lok.Zvolen 300,- 24.08.2006 30.6.2007
16 900529 BANÁŠ Ján Baník Ružina Slovan Divín 200,- 24.08.2006 30.6.2009
17 720215 BANSKÍ Róbert MFK Lok. Zvolen Tatran VLM Pliešovce 300,- 24.08.2006 31.1.2007
18 820406 BARCAJ Milan Prameň D.Strehová Družst Lehôtka 450,- 24.08.2006 30.6.2007
19 800825 BARI Attila Jánošík Rim.Janovce FK Jesenské 450,- 24.08.2006 31.1.2007
20 810123 BARI Vojtech Družst. Chramec FC Jesenské 450,- 24.08.2006 31.7.2007
21 820804 BAROŠINEC Andrej Baník Stráńavy Družstevník Valča 450 24.08.2006 31.7.2007
22 891021 BARTANUS Vladimír Družst.Lipt.Štiavnička OFC Lipt. Sliače 200,- 24.08.2006 31.1.2007
23 910921 BELKO Pavol TJ Olešná Slávia Staškov 300,- 24.08.2006 30.6.2007
24 830703 BEŇAIK Michal Prameň Kováčová Elán Zvolen 300,- 24.08.2006 30.6.2007
25 800202 BEŇAK Radovan Biotika SL.Ľupča Metalservis Králiky 300,- 24.08.2006 31.7.2007
26 910725 BENKO Jakub Agro.Insemes Lieskovec Slovan Kúpele Sliač 300,- 24.08.2006 31.8.2007
27 800322 BERAC Ján Družst. D.Lom Družst Sucháň 450,- 24.08.2006 31.7.2007
28 900621 BEREŠ Marek Sokol Nemecká FK 34 Brusno 200,- 24.08.2006 30.6.2007
29 691125 BERKY Július CŠK Cinobaňa Sokol Panické Dravce 450,- 24.08.2006 30.6.2007
30 780403 BIČAN Branislav FK Strečno Juventus ZA Závodie 450,- 24.08.2006 31.1.2007
31 770924 BIEĽAK Róbert Slovan Trstená Družst.Dlhá n.Or. 450,- 24.08.2006 31.7.2007
32 900730 BÍREŠ Ivan Tatran Harmanec Metalservis Králiky 200,- 24.08.2006 30.6.2007
33 890409 BLAHUŠIAK Miroslav Družst. Dražkovce MŠK FOMAT Martin 200,- 24.08.2006 30.6.2007
34 771020 BLAHUTA Jozef REaMOS K.Lieskovec Tatran Krásno n.Kys. 300,- 24.08.2006 31.1.2007
35 910131 BLAŠKO Milan Prameň Kováčová Slovan Agro. Budča 200,- 24.08.2006 30.6.2007
36 901013 BOBROVSKÝ Jakub ŠKF ZŤS VTJ Martin MŠK FOMAT Martin 200,- 24.08.2006 ZH
37 771010 BOCKO Dušan ŠK Záv. Poruba TJ Iľanovo 450,- 24.08.2006 31.1.2007
38 760804 BOHÁČIK Róbert CSM Tisovec Družst. Klenovec 300,- 24.08.2006 30.6.2007
39 790128 BOSÁK Peter OŠK Sása OTJ Hont.Nemce 300,- 24.08.2006 30.6.2007
40 740317 BOSMAN Peter ŠK Selce Družst. Baláže 300,- 24.08.2006 31.7.2007
41 900808 BOZÓ Attila OŠK Biskupice FTC Fiľakovo 300,- 24.08.2006 30.6.2008
42 830718 BRAŠEŇ Adam PS Hliník n.Hr. Slovan Sklené Teplice 300,- 24.08.2006 30.6.2016
43 900812 BRINDZA Gabriel FK Veľký Blh RSK Rim.Seč 200,- 24.08.2006 30.6.2007
44 680426 BRISUDA Vladislav Štart Dunajov Tatran Oščadnica 450,- 24.08.2006 30.6.2007
45 901004 BRYNDÁK Michal ŠKF ZŤS VTJ Martin MŠK FOMAT Martin 200,- 24.08.2006 ZH
46 900309 BUBLÁK Pavol OŠK Lutila Družst. Stará Kremnička 300,- 24.08.2006 30.6.2007
47 900309 BUBLÁK Peter OŠK Lutila Družst.Stará Kremnička 300,- 24.08.2006 30.6.2007
48 891113 BÚDA Michal Sokol Nemecká FK 34 Brusno 300,- 24.08.2006 30.6.2007
49 820627 BUDINSKÝ Juraj IZOMAT N.Baňa Sokol Tek.Breznica 450,- 24.08.2006 30.6.2007
50 740804 BUJŇÁK Ján Družst. Slaská FK Vyhne 450,- 24.08.2006 31.1.2007
51 840120 BUZALKA Ján Máj Černová Sokol Komjatna 450,- 24.08.2006 30.6.2007
52 851217 BZDYL Michal Juventus ZA Závodie Družst Hôrky 300,- 24.08.2006 31.1.2007
53 790302 CAPKO Róbert FK Nižná ŠK Tvrdošín 450,- 24.08.2006 30.6.2007
54 880106 CIMERMAN Marek Junior Radvaň ŠK Kremnička 200,- 24.08.2006 ZH
55 680814 CVACHO Tibor Fatran Krasňany Družst Teplička n.Váh. 450,- 24.08.2006 30.6.2007
56 821004 CZENE Štefan FC 98 Hajnačka FTC Fiľakovo 300,- 24.08.2006 30.6.2007
57 840907 ČABALA Sergej Prameň D.Strehová FK Rakytovce 85 300,- 24.08.2006 30.6.2007
58 880731 ČAJKA Jakub Ďumbier Uhorská Ves ŠK Záv. Poruba 300,- 24.08.2006 30.6.2007
59 890702 ČAKLOŠ Patrik OŠK Brehy IZOMAT N.Baňa 300,- 24.08.2006 30.6.2008
60 851219 ČERNÁK Peter Obec Lubeník Bastav Revúca-Revúčka 450,- 24.08.2006 30.6..2007
61 890106 DALIMAN Radovan ŠK Záv. Poruba OŠK Svätý Kríž 300,- 24.08.2006 31.1.2007
62 791005 DANECH Richard ŠK Podhorie Cement Liet.Lučka 450,- 24.08.2006 30.6.2007
63 851201 DANIHEL Pavol Fatran Varín Považan Nez.Lúčka 450,- 24.08.2006 30.6.2007
64 810408 DANKO Miroslav Tatran VLM Pliešovce Slovan Dudince 450,- 24.08.2006 31.1.2007
65 760801 DEBNÁR Pavol ŠK Záv. Poruba ŠK Demänová 450,- 24.08.2006 30.6.2007
66 770802 DEMKO Marek PS Hliník n.Hr. Sokol D.Ždaňa 450,- 24.08.2006 31.7.2007
67 741124 DIBALA Marián Slovan Divín Baník Ružina 300,- 24.08.2006 30.6.2007
68 910816 DIVOK Andrej Hronsek FK Rakytovce 85 200,- 24.08.2006 30.6.2009
69 800616 DOLNIAK Marián MFK Lok. Zvolen Družst. Podzámčok 300,- 24.08.2006 30.6.2007
70 890321 DUBEC Mário Istrobanka Rajec Družst. Zbýňov 300,- 24.08.2006 ZH
71 801030 ĎURANA Rastislav Tatran Krásno n.Kys. SEZ Lokca 450,- 24.08.2006 30.6.2007
72 910808 ĎURČANSKÝ Martin VTJ Raj.Teplice Istrobanka Rajec 300,- 24.08.2006 31.7.2007
73 890101 EREMIAŠ Stanislav Tatran Harmanec Metalservis Králiky 200,- 24.08.2006 30.6.2007
75 891126 ERŽIAK Slavomír Partizán Župkov Klas H.Hámre 300,- 24.08.2006 30.6.2007
76 900730 FARKAŠ Branislav MFK Lok. Zvolen Slovan Kúpele Sliač 300,- 24.08.2006 31.7.2007
77 890904 FARKAŠ Pavol MFK Lok. Zvolen Slovan Kúpele Sliač 300,- 24.08.2006 30.6.2008
78 861025 FEHÉR Štefan FC 98 Hajnačka FK Gemer.Jablonec 450.- 24.08.2006 30.6.2008
79 870429 FERANEC Marcel Tatran Or.Veselé Oravan Or.Jasenica 450,- 24.08.2006 31.1.2007
80 900725 FERENCZ Andrej MFK Lok. Zvolen Slovan Kúpele Sliač 300,- 24.08.2006 30.6.2007
81 910912 FERIANC Jaroslav OŠK Sása OŠK D.Niva 200,- 24.08.2006 30.6.2007
82 711021 FÍZEL Róbert CŠK Cinobaňa SkloTatran Poltár 450,- 24.08.2006 30.6.2007
83 870514 FOLDI Daniel OŠK Radzovce SC Čakanovce 450,- 24.08.2006 30.6.2007
84 900604 FRAŇA Filip Prameň Kováčová Slovan Kúpele Sliač 300,- 24.06.2006 30.6.2007
85 740324 FRČKA Roman OTJ Hont.Nemce Dinas Ban.Belá 300,- 24.08.2006 31.1.2007
86 910809 GAŇA Lukáš TJ Hlboké KINEX Bytča 300,- 24.08.2006 30.6.2007
87 890907 GARAJ Michal Hronsek FK Rakytovce 85 200,- 24.08.2006 30.6.2008
88 870916 GARAJ Tomáš VTJ Tatran Turany SokolStankovany 450,- 24.08.2006 31.7.2007
89 771216 GÁSPÁR Peter FC Tachty FC 98 Hajnačka 450,- 24.08.2006 30.6.2007
90 810377 GEJDOŠ Peter Agro Baník Dúbrava OŠK Lubeľa 450,- 24.08.2006 31.1.2007
91 870929 GIERTL Martin FK Šalková ŠK Kremnička 450,- 24.08.2006 30.6.2007
92 630610 GONDÁŠ Miroslav Družst. Mýtna Magnezit Lovinobaňa 300,- 24.08.2006 30.6.2007
93 821223 GONDÁŠ Radoslav Družst. Mýtna Magnezit Lovinobaňa 300,- 24.08.2006 30.6.2007
94 901210 GONŠOR Adam ŠKF ZŤS VTJ Martin MŠK FOMAT Martin 200,- 24.08.2006 ZH
95 851205 GREGOR Milan Sokol Medzibrod FK 34 Brusno 450,- 24.08.2006 31.1.2007
96 810521 GREGUŠKA Miroslav Družst. Veličná OFK Družst. Žaškov 450,- 24.08.2006 30.6.2007
97 691123 GUBALA Roman Jánošík Rim.Janovce FK Veľký Blh 450,- 24.08.2006 30.6.2007
98 871202 GUTWIRT Ernest OŠK Biskupice Baník Ružina 300,- 24.08.2006 31.1.2007
99 731221 GYURE Róbert ŠK Kremnička ŠK Selce 450,- 24.08.2006 31.7.2007
100 890804 HALGAŠ Andrej Sokol Nemecká FK 34 Brusno 300,- 24.08.2006 30.6.2007
101 860514 HANYUS František FC 98 Hajnačka TJ Blhovce 450,- 24.08.2006 30.6.2007
102 891207 HAVIAR Róbert Sokol Medzibrod FK 34 Brusno 300,- 24.08.2006 30.6.2007
103 781026 HAVIAR Roman OŠK Radzovce 1 FK Buzitka 300,- 24.08.2006 28.2.2007
104 910627 HENŽEL Filip Družst.Slaská OŠK Lutila 450,- 24.08.2006 31.8.2007
105 870923 HLINKA Marián PS Hliník n.Hr. Tatran Bzenica 450,- 24.08.2006 30.6.2007
106 821102 HLINKA Martin PS Hliník n.Hr. Tatran Bzenica 450,- 24.08.2006 30.6.2007
107 841226 HLUŠÁK Marek ŠK Záv. Poruba Sokol Beňadiková 450,- 24.08.2006 30.6.2007
108 800909 HLUŠEK ján Polom Raková Družst.Teplička n.Váh. 450,- 24.08.2006 31.1.2007
109 841202 HOLAS Miroslav SkloTatran Poltár SŠM Boľkovce 300,- 24.08.2006 31.7.2007
110 890525 HOLÍK Martin Hronsek FK Rakytovce 85 200,- 24.08.2006 30.6.2008
111 821120 HOMOLA Vlastimíl Tatran Krásno n.Kys. SEZ Lokca 450,- 24.08.2006 30.6.2007
112 910916 HOTVÁTH Jozef FTC Fiľakovo OŠK Biskupice 300,- 24.08.2006 30.6.2007
113 740606 HôREČNÝ Miroslav KINEX Bytča FKH Hliník 450,- 24.08.2006 31.7.2007
114 851223 HRABOŠ Marek Tatran Hrabové FK Predmier 300,- 24.08.2006 31.1.2007
115 850822 HRABOVSKÝ Bohúš KINEX Bytča Tatran Hrabové 450,- 24.08.2006 30.6.2007
116 860331 HRAŠKO Dušan MFK Detva Slovan Podkriváň 450,- 24.08.2006 30.6.2007
117 810408 HUBNER Norbert Lok.ŽOS Vrútky Slovan Bystrička 450,- 24.08.2006 31.1.2007
118 830719 HUBOČAN Milan Juventus ZA Závodie Istrobanka Rajec 450,- 24.08.2006 30.6.2007
119 901110 HUDEC Michal Part.Veľ.Lehota IZOMAT N.Baňa 300,- 24.08.2006 31.7.2007
120 840130 HULEJ Michal Magnezit Lovinobańa Baník Ružina 300,- 24.08.2006 30.6.2007
121 830521 HUSÁRIK Marián OŠK Baník Stráňavy VTJ Raj. Teplice 450,- 24.08.2006 30.6.2007
122 890608 HUŤKA Ján Sokol Medzibrod Biotika SL.Ľupča 300,- 24.08.2006 30.6.2007
123 851107 HÝLL Lukáš Jednota Bánova FK Trebostovo 450,- 24.08.2006 31.1.2007
124 910908 CHABAN Peter Družst Priechod ŠK Selce 300,- 24.08.2006 30.6.2007
125 870627 CHODELKA Peter Juventus ZA Závodie Považan Nez.Lúčka 450,- 24.08.2006 30.6.2007
126 900827 CHROMEK Ivan Tesla L.Hrádok OŠK Podtúreň 300,- 24.08.2006 30.6.2007
127 860605 CHVÁLIK Stanislav FK 34 Brusno Družst. Jasenie 300,- 24.08.2006 31.1.2007
128 890323 IFKOVICH Marek Hronsek FK Rakytovce 85 200,- 24.08.2006 30.6.2007
129 821219 INŠPEKTOR Ján KINEX Bytča TJ Kolárovice 300,- 24.08.2006 30.6.2007
130 721129 IVAN Igor Družst. Hr. Breznica Sokol Trnavá Hora
24.08.2006 30.6.2007 čl.29/12
131 780615 IZAKOVIČ Martin Družst. Sklabina ZAEL M. Kameň 450,- 24.08.2006 31.7.2007
132 910202 JAKUBEC Matej Štart Dunajov REaMOS K.Lieskovec 300,- 24.08.2006 30.6.2007
133 890111 JAKUBSKÝ Michal Tatran Sučany Javorina Podhradie 450,- 24.08.2006 30.6.2007
134 911227 JAMRICH Tomáš Tatran Harmanec Metalservis Králiky 200,- 24.08.2006 30.6.2007
135 890501 JANIŠ Jaroslav FK Hliník FK Predmier 200,- 24.08.2006 31.8.2007
136 860726 JANUS František ŠK D.Hričov Družst.Hrič.Podhradie 300,- 24.08.2006 30.6.2007
137 881213 JENDRIŠEK Lukáš Družst. Dlhá n.Or. Slovan Trstená 450,- 24.08.2006 31.7.2007
138 910508 JOMBÍK Jozef Prameň Kováčová Slovan Agro. Budča 200,- 24.08.2006 30.6.2007
139 810412 JUHANIAK Martin Družst. Hr. Ves Baník Kalinovo 450,- 24.08.2006 30.6.2007
140 840908 JUHÁS Michal Juventus ZA Závodie TJ H.Hričov 300,- 24.08.2006 31.1.2007
141 850327 JUHÁSZ Gabriel TJ Uzovská Panica FC Jesenské 450,- 24.08.2006 30.6.2007
142 910203 JUCHA Peter Družst.Dúbravy MFK Detva 400,- 24.08.2006 30.6.2008
143 710521 KAČERÍK michal Slovan Vadičov MŠK K.N.Mesto 300,- 24.08.2006 30.6.2007
144 750706 KALINA Rastislav Istrobanka Rajec Cement Liet.Lučka 450,- 24.08.2006 30.6.2007
145 910402 KÁN Matúš ŠK Selce Družst Priechod 200,- 24.08.2006 30.6.2007
146 900817 KAPUSTA Stanislav ŠKF ZŤS VTJ Martin MŠK FOMAT Martin 200,- 24.87.06 ZH
147 900128 KASMAN Peter Istrobanka Rajec Družst. Zbýňov 300,- 24.08.2006 ZH
148 910614 KÉKETY Peter FK Stará Halič Slovan Tomášovce 200,- 24.08.2006 30.6.2010
149 870515 KERESZTEŠ Štefan FTC Fiľakovo FC Gemer Šid 300,- 24.08.2006 31.1.2007
150 851209 KICKO Martin Sandrik D.Hámre Sokol D.Ždaňa 450,- 24.08.2006 31.7.2007
151 870222 KLIMAN Peter IZOMAT N.Baňa Sandrik D.Hámre 450,- 24.08.2006 31.1.2007
152 890710 KMEŤ Stanislav ŠKF ZŤS VTJ Martin MŠK FOMAT Martin 200,- 24.08.2006 ZH
153 871122 KOCTUR Jozef ŠK Selce Družst. Baláže 300,- 24.08.2006 30.6.2007
154 910306 KOJŠ Michal Tatran NAO L.Mikuláš TJ Iľanovo 300,- 24.08.2006 31.7.2007
156 720409 KOLEJÁK Ján FK Nižná Slovan Trstená 450,- 24.08.2006 30.6.2007
157 860119 KOLLÁR jaroslav PS Hliník n.Hr. Tatran Bzenica 450,- 24.08.2006 30.6.2007
158 740716 KOMPIŠ Miroslav ŠK Záv. Poruba Štart Lip.Ján 450,- 24.08.2006 31.1.2007
159 891206 KONIAR Miloš MFK Lok. Zvolen Prameň Kováčová 300,- 24.08.2006 30.6.2008
160 871121 KOŇUŠIAK František Pokrok St.Bystrica Spartak Radôstka 450,- 24.08.2006 31.7.2007
161 651127 KOPÁČEK Milan TJ Bešeňová Družs. Lipt.Štiavnička 450,- 24.08.2006 31.7.2009
162 901107 KOPÁSEK Branislav Tatran Krásno n.Kys. REaMOS K.Lieskovec 300,- 24.08.2006 30.6.2007
163 911211 KOPÁSEK Marek Štart Dunajov REaMOS K.Lieskovec 300,- 24.08.2006 31.1.2007
164 890913 KORDEK Lukáš Beskid Svrčinovec FK Čadca 300,- 24.08.2006 31.7.2007
165 891003 KOREŇ Jakub Poľana Hubová Máj Černová 300,- 24.08.2006 30.6.2007
166 860620 KORENČÍK Michal Spartak Radôstka Pokrok St.Bystrica 300,- 24.08.2006 31.1.2007
167 850815 KOSA Marek Jednota Bánova FK Trebostovo 450,- 24.08.2006 31.1.2007
168 870725 KOSCELNÍK Juraj IDOP Lipovec Družst. Tur.Štiavnička 450,- 24.08.2006 31.1.2007
169 910215 KOŠÚT Ján MFK Detva MFK Lok.Zvolen 300,- 24.08.2006 30.6.2010
170 870214 KOTMAN Tomáš Slovan Vidina Baník Kalinovo 450,- 24.08.2006 31.1.2007
171 771004 KOTUĽA Štefan Polom Raková Beskyd Svrčinovec 300,- 24.08.2006 30.6.2007
172 900328 KOVÁČ Adam Sokol Nemecká FK 34 Brusno 300,- 24.08.2006 30.6.2007
173 870701 KOVÁČ Anton ŠK Záv. Poruba OŠK Svätý Kríž 450,- 24.08.2006 30.6.2007
174 890212 KOVÁČ Ľubomír Sokol Nemecká FK 34 Brusno 300,- 24.08.2006 30.6.2007
175 721214 KOVÁČ Peter Tesla L.Hrádok Agro Baník Dúbrava 450,- 24.08.2006 31.7.2007
176 911026 KOVAČIK Andrej Družst. Belá FK Trebostovo 450,- 24.08.2006 31.7.2007
177 901015 KOVÁČIK Michal Prameň Kováčová Slovan Kúpele Sliač 200,- 24.08.2006 30.6.2008
178 870815 KOVÁČIK Miroslav KINEX Bytča TJ Kolárovice 300,- 24.08.2006 30.6.2007
179 900930 KOVAČIK Radovan TJ Olešná Slávia Staškov 300,- 24.08.2006 30.6.2007
180 760308 KOZÁRIK Peter MFK Lok. Zvolen Slovan Kúpele Sliač 450,- 24.08.2006 30.6.2007
181 901104 KOŽELUHA Miroslav ŠKF ZŤS VTJ Martin MŠK FOMAT Martin 200,- 24.08.2006 ZH
182 890612 KRAHULEC Martin ZAEL M.Kameň FK Bušince 300,- 24.08.2006 30.6.2007
183 900305 KRAHULEC Michal FK Bušince FO M.Zlievce 300,- 24.08.2006 31.1.2007
184 891011 KRIŠKO Ján ŠK Litava Družst. Bzovík 200,- 24.08.2006 30.6.2008
185 891011 KRIŠKO Ján ŠK Litava Družst. Bzovík 200,- 24.08.2006 ZH
186 850123 KRIŠTOFÍK Miroslav Družst. Valča Part. Necpaly 450,- 24.08.2006 30.6.2007
187 890413 KRKOŠKA Jakub ŠKF ZŤS VTJ Martin MŠK FOMAT Martin 200,- 24.08.2006 ZH
188 801110 KRKOŠKA Jozef Beskyd Svrčinovec Tatran Oščadnica 450,- 24.08.2006 30.6.2007
189 820607 KRKOŠKA Marián MŠK K.N.Mesto Beskyd Svrčinovec 450,- 24.08.2006 ZH
190 850423 KRNČAN Michal Máj Černová Poľana Hubová 450,- 24.08.2006 30.6.2007
191 911227 KROKOŠ Marián MFK Lok. Zvolen Slovan Kúpele Sliač 300,- 24.08.2006 31.7.2007
192 780207 KROPILÁK Radoslav FK Záhorce Družst.Olováry 450,- 24.08.2006 31.1.2007
193 830801 KRŠIAK Andrej ŠK Rudno n.Hr. Sokol D.Ždaňa 300,- 24.08.2006 30.6.2007
194 780501 KUBAČÁK Peter TJ Olešná OFK Lipt.Lužná 300,- 24.08.2006 31.7.2007
195 760918 KUBALA Milan REaMOS K.Lieskovec Pokrok St.Bystrica 300,- 24.08.2006 30.6.2007
196 901121 KUBICA Pavol Istrobanka Rajec Družst Zbýňov 300,- 24.08.2006 ZH
197 861208 KUBINA Martin CSM Tisovec Družst Klenovec 300,- 24.08.2006 30.6.2008
198 721210 KUČERA Jozef MFK Lok. Zvolen Baník Ružina 300,- 24.08.2006 30.6.2007
199 721002 KUČERA Peter Lok ŽOS Vrútky MŠK FOMAT Martin 300,- 24.08.2006 28.2.2007
200 701231 KUCHÁRIK Marián ŠK Záv. Poruba OŠK Svätý Kríž 450,- 24.08.2006 31.1.200
201 891004 KUNA Michal ŠK Bobrovec Tatran NAO L.Mikuláš 300,- 24.08.2006 31.7.2007
202 790301 KUNSKÝ Ivan MFK Žarnovica Klas H.Hámre 450,- 24.08.2006 30.6.2007
203 820814 KURÁK Peter SkloTatran Poltár Jednota Málinec 450,- 24.08.2006 30.6.2007
204 810412 KURČINA František MŠK Námestovo Lok.SEZ Kráľovany 450,- 24.08.2006 30.6.2007
205 831125 KURČINA Jozef MŠK Námestovo Lok.SEZ Kráľovany 450,- 24.08.2006 30.6.2007
206 890927 KUTLIAK Dušan FK Záhorce Baník V.Krtíš 300,- 24.08.2006 30.6.2007
207 910316 KVAS Jozef MFK Strojár Krupina OTJ Hont.Nemce 300,- 24.08.2006 30.6.2007
208 910324 LABANT Michal ŠK Belá Fatran D.Tižina 300,- 24.08.2006 30.6.2007
209 910226 LABUDA Ľuboslav VTJ Raj.Teplice Istrobanka Rajec 300,- 24.08.2006 31.7.2007
210 871209 LACÚCH Michal VTJ Tatran Turany Sokol Stankovany 450,- 24.08.2006 31.7.2007
211 841221 ĽAHKÝ Ján Baník V.Krtíš Družst. Olováry 450,- 24.08.2006 31.1.2007
212 850616 LAKOMČÍK Marián Biotika SL.Ľupča ŠK Kremnička 450,- 24.08.2006 31.1.2007
213 711213 LALÍK Peter OTJ Hont.Nemce Družst. Terany 300,- 24.08.2006 30.6.2007
214 891020 LAMPER Maroš Sokol Medzibrod FK 34 Brusno 300,- 24.08.2006 30.6.2007
215 900829 LAPIN Michal Tatran Harmanec Metalservis Králiky 200,- 24.08.2006 30.6.2007
216 810915 LASIČKA Marián Družst. Hrič.Podhradie ŠK D.Hričov 450,- 24.08.2006 30.6.2007
217 860707 LASIČKA Marián ŠK D.Hričov Družst. Hrič.Podhradie 300,- 24.08.2006 30.6.2007
218 910227 LAŠČIAK Lukáš Kysučan Korňa Slovan Podvysoká 450,- 24.08.2006 30.6.2007
219 851026 LAUKOV Vladimír Klas H.Hámre MFK Žarnovica 450,- 24.08.2006 30.6.2007
220 871223 LEHOTSKÝ Ľubomír Part.Č.Balog FK 34 Brusno 300,- 24.08.2006 30.6.2007
221 890603 LEŠKO Kamil Sokol Medzibrod Biotika SL.Ľupča 300,- 24.08.2006 30.6.2007
222 880516 LIŠKA Martin Junior Radvaň ŠK Kremnička 200,- 24.08.2006 ZH
223 890606 LOJAN Jaroslav Družst. Sklabiňa MŠK FOMAT Martin 200,- 24.08.2006 30.6.2007
224 880410 LONGAUER Tomáš Junior Radvaň ŠK Kremnička 200,- 24.08.2006 ZH
225 781104 LOPUŠAN Norbert SŠM Boľkovce FK Stará Halič 450,- 24.08.2006 30.6.2007
226 900103 LUCIAK Marek Slovan Rudinská MŠK K.N.Mesto 300,- 24.08.2006 30.6.2007
227 910510 LUPÁK Marcel Kysučan Korňa Slovan Podvysoká 450,- 24.08.2006 30.6.2007
228 780314 ĽUPTÁK Ivan Prameň Kováčová Sokol Túrová 450,- 24.08.2006 30.6.2007
229 891030 MACKO Michal Družst Príbelce Baník V.Krtíš 300,- 24.08.2006 30.6.2007
230 801108 MADERA Stanislav Máj Černová Poľana Hubová 450,- 24.08.2006 30.6.2007
231 890715 MAGYAR Pavol OŠK Radzovce SC Čakanovce 450,- 24.08.2006 30.6.2007
232 860128 MAGYORÓDI Otto ŠK Bátka FK Jesenské 450,- 24.08.2006 31.7.2007
233 720228 MACHOVIČ Viliam Lok ŽOS Vrútky MŠK FOMAT Martin 300,- 24.08.2006 28.2.2007
234 740805 MACHYNA Róbert TJ trnové OŠK Baník Stráňavy 300,- 24.08.2006 30.6.2007
235 830523 MAJÁK Peter Tatran Oščadnica Slovan Povina 450,- 24.08.2006 31.7.2007
236 851215 MAJER Martin PS Hliník n.Hr. Tatran Bzenica 450,- 24.08.2006 30.6.2007
237 820218 MAJERČÍK Ján Slovan Kúpele Sliač ŠK Kremnička 450,- 24.08.2006 31.1.2007
238 901226 MAKYNA Lukáš ŠK Petrovce KINEX Bytča 300,- 24.08.2006 30.6.2007
239 891110 MALATINEC Ľubomír Družst. Mýtna Slovan Divín 300,- 24.08.2006 30.6.2007
240 910804 MALČEK Miroslav Magnezit Lovinobańa Slovan Divín 200,- 24.08.2006 30.6.2008
241 890116 MALOV Matúš ZAEL M.Kameň FK Bušince 300,- 24.08.2006 31.1.2007
242 870508 MARUŠKA Rastislav IZOMAT N.Baňa OŠK Brehy 300,- 24.08.2006 31.7.2007
243 890829 MATIS Adam Máj Černová Poľana Hubová 300,- 24.08.2006 30.6.2007
244 851122 MATUŠKA Ján Baník Kalinovo Tatran Lipovany 300,- 24.08.2006 31.1.2007
245 830503 MATUŠKA Jozef Tatran Lipovany SŠM Boľkovce 450,- 24.08.2006 31.7.2007
246 910628 MEČÁR Peter Štart Dunajov REaMOS K.Lieskovec 300,- 24.08.2006 30.6.2007
247 850104 MEDE Peter FC 98 Hajnačka FK Gemer.Jablonec 450,- 24.08.2006 30.6.2007
248 790130 MELICH Ján Baník Ružina Jednota Málinec 450,- 24.08.2006 31.1.2007
249 850718 MELICHERÍK Roman Slovan Trstená Družst.Vitanová 450,- 24.08.2006 30.6.2007
250 820217 MESÍK Martin ŠK Selce Družst. Baláže 300,- 24.08.2006 31.7.2007
251 901129 MEZEI Bohdan Hronsek FK Rakytovce 85 200,- 24.08.2006 30.6.2009
251 811128 MIHÁL Boris MFK Lok. Zvolen Tatran VLM Pliešovce 300,- 24.08.2006 31.1.2007
252 840331 MIKLOŠ Marián Slovan Tomášovce FTC Fiľakovo 450,- 24.08.2006 30.6.2007
253 890429 MITAŠ Roman KINEX Bytča FK Hliník 300,- 24.08.2006 31.7.2007
254 900420 MIZERA Michal ŠKF ZŤS VTJ Martin MŠK FOMAT Martin 200,- 24.08.2006 ZH
256 800620 MLYNARČÍK Martin FK 34 Brusno Sokol Hiadeľ 450,- 24.08.2006 30.6.2007
257 890831 MOHL Michal ŠKF ZŤS VTJ Martin MŠK FOMAT Martin 200,- 24.08.2006 ZH
258 860111 MOLNÁR Szabolcs FC 98 Hajnačka TJ Blhovce 450,- 24.08.2006 30.6.2007
259 790129 MORAVČÍK Dušan OŠK Svätý Kríž Agro Baník Dúbrava 300,- 24.08.2006 31.1.2007
260 890803 MORÁVEK Matej Žiara H.Štubňa MŠK FOMAT Martin 300,- 24.08.2006 30.6.2007
261 770629 MOTRINEC Stanislav ŠK Záv. Poruba FK Lipt.Vlachy 450,- 24.08.2006 30.6.2007
262 870906 MRÁZIK Daniel Družst.Teplička n.Váh. OŠK Nededza 450,- 24.08.2006 31.1.2007
263 910311 MUCHA Peter Družst. Blatnica- MŠK FOMAT Martin 300,- 24.08.2006 31.7.2007
264 911226 MYDLIAR Jakub Tesla L.Hrádok Tatran NAO L.Mikuláš 300,- 24.08.2006 30.6.2006
265 850729 NÁGY Gábor FTC Fiľakovo OŠK Biskupice 300,- 24.08.2006 30.6.2007
266 881124 NAJDEK Michal Junior Radvaň ŠK Kremnička 200,- 24.08.2006 ZH
267 840111 NECPAL Michal Sitno Ban.Štiavnica PS Hliník n.Hr. 450,- 24.08.2006 31.1.2007
268 801124 NEMEC Ján Agro Baník Dúbrava OŠK Svätý Kríž 450,- 24.08.2006 31.1.2007
269 860519 NEVEĎAL Jozef REaMOS K.Lieskovec Snaha Zborov n.Byst. 450,- 24.08.2006 30.6.2007
270 770515 NOCIAR Viliam Mladosť Zvolen Družst. Dačov Lom 450,- 24.08.2006 30.6.2007
271 760828 OBORIL Peter Metalservis Králiky ŠK Kremnička 450,- 24.08.2006 31.1.2007
272 801208 OCIEPKA Ivan Družst.Tur.Štiavnička Tatran Sučany 450,- 24.08.2006 31.1.2007
273 810906 OČENÁŠ Jozef ŠK Selce Družst Baláže 300,- 24.08.2006 31.7.2007
274 911221 OKULIAR Miroslav Slovan Rudinská MŠK K.N.Mesto 450,- 24.08.2006 30.6.2007
275 851207 OLÁH Ľubomír Družst. Mýtna Slovan Divín 300,- 24.08.2006 30.6.2007
276 880827 OLÁH Michal Baník Ružina Magnezit Lovinobaňa 300,- 24.08.2006 30.6.2007
277 811202 ONDREJKOV Ján Družst.Stred.Plachtince Banik V.Krtíš 450,- 24.08.2006 30.6.2007
278 861218 OSLANEC Lubomír MFK Žarnovica ŠK Voznica 300,- 24.08.2006 30.6.2008
279 790702 PÁL Gregor FC Tachty FC 98 Hajnačka 450,- 24.08.2006 30.6.2007
280 900116 PALAN Andrej Tatran Harmanec Metalservis Králiky 200,- 24.08.2006 30.6.2007
281 860914 PALIDER Radoslav Slovan Trstená ŠK Tvrdošín 450,- 24.08.2006 30.6.2007
282 900921 PÁLKA Michal Tatran Harmanec Metalservis Králiky 200,- 24.08.2006 30.6.2007
283 831114 PALUCH Michal Sokol Jakub Metalservis Králiky 300,- 24.08.2006 31.7.2007
284 891027 PANČÍK Vladimír Máj Černová Poľana Hubová 300,- 24.08.2006 30.6.2007
285 860113 PAP Štefan Pokrok Ipeľ.Predmostie FK Vinica 450,- 24.08.2006 30.6.2007
286 890104 PAPÁNEK Anton KINEX Bytča OFK Kotešová 200,- 24.08.2006 30.6.2007
287 890708 PAROBOK Pavol ŠK Litava Družst. Bzovík 200,- 24.08.2006 30.6.2007
289 890708 PAROBOK Pavol Družst.Čabrad-D.Badín ŠK Litava 500,- 24.08.2006 ZH
290 870123 PATAKI Gabriel FC 98 Hajnačka TJ Blhovce 450,- 24.08.2006 30.6.2007
291 650814 PAUK Ľubomír FK Rakytovce 85 Metalservis Králiky 300,- 24.08.2006 30.6.2007
292 860525 PAULÍNI Ján Istrobanka Rajec Jednota Bánová 450,- 24.08.2006 31.1.2007
293 761003 PAÚLINY Radoslav Agro Baník Dúbrava Štart Lip.Ján 450,- 24.08.2006 30.6.2007
294 890612 PAVLOVIČ Ivan ŠKF ZŤS VTJ Martin MŠK FOMAT Martin ˇ200,- 24.08.2006 ZH
295 870220 PAVOL Milan MFK Žarnovica ŠK Voznica 300,- 24.08.2006 30.6.2008
296 860919 PERAŠÍN Peter ŠK Záv. Poruba Sokol Beňadiková 450,- 24.08.2006 30.6.2007
297 831226 PETÍK Peter Družst.Trebeľpvce Baník Ružina 300,- 24.08.2006 30.6.2007
298 911122 PIECKA Martin Hronsek FK Rakytovce 85 200,- 24.08.2006 30.6.2009
299 840626 PIJÁK Ján ŠK Radoľa Slovan Povina 450,- 24.08.2006 31.7.2007
300 910513 PILÁT Filip FO Malé Zlievce FK Bušince 300,- 24.08.2006 30.6.2007
301 750114 PLAVEC Milan Metalservis Králiky Sokol Jakub 450,- 24.08.2006 31.7.2007
302 850813 PODLESKÝ Miroslav Tatran Oščadnica Slovan Povina 450,- 24.08.2006 31.7.2007
303 860210 POLC Marek IZOMAT N.Baňa Sokol Tek.Breznica 450,- 24.08.2006 30.6.2007
304 870717 POLC Vladimír IZOMAT N.Baňa Sandrik D.Hámre 450,- 24.08.2006 31.1.2007
305 800208 PRAČKO Pavol Družst. Mýtna Baník Ružina 300,- 24.08.2006 31.1.2007
306 880311 PRAŠTIAK Matúš ŠK Demänová FC 34 L.M.-Palúdzka 450,- 24.08.2006 31.1.2007
307 801203 PRATÁK Pavol Cement.Liet.Lúčka FK Terchová 300,- 24.08.2006 31.1.2007
308 800314 PRUTKAY Peter MFK Žarnovica Klas H.Hámre 450,- 24.08.2006 30.6.2007
309 911105 PÚPALA Ján OŠK Sása OŠK D.Niva 200,- 24.08.2006 30.6.2007
310 890401 PÚPALA Pavol Sokol Medzibrod Biotika SL.Ľupča 300,- 24.08.2006 30.6.2007
311 851209 RAČAK Tomáš Rozvoj Breza ŠK Tvrdošín 450,- 24.08.2006 30.6.2007
312 910809 RAČKO Jakub TJ Pribylina Tesla L.Hrádok 200,- 24.08.2006 30.6.2007
313 750623 RADIČ Ján SkloTatran Poltár Štart Kokava n.Rim. 450,- 24.08.2006 31.7.2007
314 681002 RAKUČÁK Peter ŠK D.Hričov Družst. Hrič.Podhradie 300,- 24.08.2006 30.6.2007
315 811015 RAPÁN Marián Družst. Drážkovce Družst. Valča 450,- 24.08.2006 31.1.2007
316 840611 RENDLA Ľuboš MFK Žarnovica Klas H.Hámre 450,- 24.08.2006 30.6.2007
317 721227 REPKA Ján ŠK Tvrdošín Družst. Dlhá n.Or. 450,- 24.08.2006 31.7.2007
318 840606 REVAJ Tomáš MŠK Námestovo Oravan Rabča 450,- 24.08.2006 31.1.2007
319 900814 RICHTER Roland Tatran Harmanec Metalservis Králiky 200,- 24.08.2006 30.6.2007
320 870112 RISKA Matej MFK Lok. Zvolen OTJ Hont.Nemce 300,- 24.08.2006 31.1.2007
321 890615 ROŠKO Peter FK Šalková ŠKM Savon B.B. 200,- 24.08.2006 30.6.2008
322 740610 RUBINT Rudolf Metalservis Králiky Sokol Jakub 450,- 24.08.2006 31.7.2007
323 890531 RUŽIČKA Jakub ŠKF ZŤS VTJ Martin MŠK FOMAT Martin ˇ200,- 24.08.2006 ZH
324 730908 SCHMIDT Marián Lok ŽOS Vrútky MŠK FOMAT Martin 300,- 24.08.2006 28.2.2007
325 730903 SKLADAN Ľuboš PS Hliník n.Hr. Slovan Sklené Teplice 300,- 24.08.2006 30.6.2012
326 790928 SKOPAL Maroš Slovan Tomášovce Prameň D.Strehová 300,- 24.08.2006 31.7.2007
327 740218 SLÍŽ Štefan REaMOS K.Lieskovec OŠK Rudina 450,- 24.08.2006 31.7.2007
328 901124 SMUTNÝ Filip ŠKF ZŤS VTJ Martin MŠK FOMAT Martin 200,- 24.08.2006 ZH
329 910606 SNOPKO Patrik Hronsek FK Rakytovce 85 200,- 24.08.2006 30.6.2009
330 710305 SOBOLA Rudolf Družst. Hrič.Podhradie ŠK D.Hričov 450,- 24.08.2006 30.6.2007
331 910216 SOJAK Patrik Sokol Nemecká FK 34 Brusno 300,- 24.08.2006 30.6.2007
332 800525 SOKOL Martin ŠK Kremnička FK 34 Brusno 450,- 24.08.2006 31.1.2007
333 880425 SPODNIAK Michal Junior Radvaň ŠK Kremnička 200,- 24.08.2006 ZH
334 800615 STANČÍK Miroslav Družst. Cerovo Družst. D.Lom 450,- 24.08.2006 31.7.2007
335 810712 STENCHLÁK Milan Družst. Lietava Družst.Teplička n.Váh. 450,- 24.08.2006 30.6.2007
336 910929 STOKLASA Juraj Olympia Bobrov MŠK Námestovo 200,- 24.08.2006 31.1.2007
337 900302 STRAPKO Milan ZAEL M.Kameň FK Bušince 300,- 24.08.2006 30.6.2007
338 850409 STRHÁK Tomáš Junior Radvaň Sokol Hiadeľ 300,- 24.08.2006 30.6.2007
339 910929 SUČÍK Martin TJ Olešná Slávia Staškov 300,- 24.08.2006 30.6.2007
340 860427 SUCHÝ Andrej OŠK Part. Ľupča Agro Baník Dúbrava 450,- 24.08.2006 30.6.2007
341 871110 SVRČEK Martin MŠK K.N.Mesto OŠK Snežnica 300,- 24.08.2006 30.6.2007
342 841024 SÝKORA Ján Družst Olováry Družst Stred.Plachtince 450,- 24.08.2006 30.6.2007
343 900421 ŠIMKO Branislav ŠKF ZŤS VTJ Martin MŠK FOMAT Martin 200,- 24.08.2006 ZH
344 910925 ŠIMOVIČ Dávid Liptov Vavrišovo Tatran NAO L.Mikuláš 300,- 24.08.2006 30.6.2008
345 881004 ŠINAL Daniel Slovan Podvysoká TJ Olešná 300,- 24.08.2006 ZH
346 910321 ŠINTAJ Miroslav Liptov Vavrišovo Tesla L.Hrádok 200,- 24.08.2006 30.6.2007
347 840408 ŠPAŇO Blažej MFK Lok. Zvolen MFK Žarnovica 450,- 24.08.2006 31.1.2007
348 860919 ŠPULICA Daniel Javorník Makov MŠK K.N.Mesto 450,- 24.08.2006 31.1.2007
349 720428 ŠROT Pavol Sokol Nemecká FK Vyhne 450,- 24.8.-06 30.6.2007
350 891009 ŠTANCEL Michal Družst. Blážovce MŠK FOMAT Martin 200,- 24.08.2006 31.7.2008
351 900328 ŠTRBA Milan PS Hliník n.Hr. IZOMAT N.Baňa 200,- 24.08.2006 30.6.2009
352 831109 ŠUHAJDA Marcel FK Jesenské Jánošík Rim.Janovce 300,- 24.08.2006 31.1.2007
353 910818 ŠULEK Matej MFK Lok. Zvolen Slovan Kúpele Sliač 300,- 24.08.2006 30.6.2007
354 790908 ŠUPOLÍK Ján Slávia zakopčie Polom Raková 450,- 24.08.2006 30.6.2007
356 910226 ŠVANCAR Erik Beskid Svrčinovec FK Čadca 300,- 24.08.2006 31.7.2007
357 870826 ŠVEC Erik MFK Slovmag Revúca FK Rakytovce 85 300,- 24,.8.06 30.6.2007
358 840107 ŠVEJDÍK Marek Považan Nez.Lúčka FK Strečno 300,- 24.08.2006 31.1.2007
360 850715 TABAČÁK Martin FK Nižná Tatran Or.Biely Potok 450,- 24.08.2006 30.6.2007
361 811114 TATÁR Ľudovít PS Hliník n.Hr. Slovan Sklené Teplice 300 24.08.2006 30.6.2016
362 910213 TEREŇ Tomáš Šlachtiteľ Viglaš-Pstruša MFK Lok.Zvolen 300,- 24.08.2006 30.6.2007
363 851218 TIMEK Marek Tatran Krásno n.Kys. REaMOS K.Lieskovec 300,- 24.08.2006 31.1.2007
364 740313 TIŠTÁN Vratko OŠK Ludrová TJ Valas.Dubová 300,- 24.08.2006 30.6.2007
365 891125 TOKÁR Ján ŠKM Savon B.B. ŠK Selce 300,- 24.08.2006 30.6.2007
366 750108 TOMAN Miroslav Javorník Makov Tatran Oščadnica 450,- 24.08.2006 30.6.2007
367 870305 TONKA Jozef Cement.Liet.Lúčka ŠK Podhorie 300,- 24.08.2006 30.6.2007
368 860219 TÓTH Štefan FC 98 Hajnačka TJ Gemer Jablonec 450,- 24.08.2006 30.6.2007
369 690627 TÓTH Tibor FK Veľký Blh Jánošík Rim.Janovce 450,- 24.08.2006 31.7.2007
370 910319 TÓTH Tomáš TJ Nenince Baník V.Krtíš 300,- 24.08.2006 31.1.2007
371 871211 TREBUĽA Peter Baník V.Krtíš Družst. Olováry 450,- 24.08.2006 30.6.2007
372 891026 TREBULA Stanislav ŠKF ZŤS VTJ Martin MŠK FOMAT Martin 200,- 24.08.2006 ZH
373 810909 TRHAN Daniel Štart Kokava n.Rim. Baník Ružina 300,- 24.08.2006 31.1.2007
374 710318 TRHANČÍK Jaroslav FK Strečno OŠK Rosina 400,- 24.08.2006 31.1.2007
375 671013 TROPEK Jozef MŠK Námestovo Družst. Lipt.Štiavnička 600,- 24.08.2006 30.6.2007
376 890615 TRUBAN Marek Hronsek FK Šalková 200,- 24.08.2006 30.6.2007
377 880426 TURÁK Róbert Junior Radvaň ŠK Kremnička 200,- 24.08.2006 ZH
378 850109 TURANEC Michal OŠK Baník Stráňavy Rozvoj Mojš 300,- 24.08.2006 30.6.2007
379 831201 TURČAN Miroslav TJ trnové OŠK Rosina 450,- 24.08.2006 30.6.2007
380 910525 TURČÍK Martin Družst. Hrič.Podhradie ŠK D.Hričov 200,- 24.08.2006 30.6.2009
381 870528 TUŽINSKÝ Martin IZOMAT N.Baňa ŠK Rudno n.Hr. 450,- 24.08.2006 30.6.2007
382 860111 UHRÍK Miloš Váhostav H.Hričov ŠK D.Hričov 300,- 24.08.2006 31.1.2007
383 830509 ÚRADNÍK Peter Part.Č.Balog Tatran Č.Balog 300,- 24.08.2006 30.6.2007
384 790606 URBAN Jaroslav ŠK Radoľa Slovan Povina 450,- 24.08.2006 31.7.2007
385 691212 VÁCLAVÍK Ondrej Tempus R.Sobota Slovan Hr.Zalužany 450,- 24.08.2006 30.6.2007
386 850314 VÁCLAVIK Peter Družst. Lehôtka SŠM Boľkovce 450,- 24.08.2006 31.7.2007
387 890125 VÁCLAVIK Peter FO Malé Zlievce FK Bušince 300,- 24.08.2006 30.6.2007
388 900619 VAJDIAR Jozef SEZ Lokca MFK D.Kubín 300,- 24.08.2006 31.1.2007
389 840911 VALAŠEK Miroslav Jednota Bánova FK Trebostovo 450,- 24.08.2006 31.1.2007
390 780822 VALAŠTIAK Milan FC 34 L.M.-Palúdzka ŠK Demänová 450,- 24.08.2006 31.1.2007
391 841104 VANČÍK Štefan Družst. Hrič.Podhradie ŠK D.Hričov 450,- 24.08.2006 30.6.2007
392 830716 VARECHA Ján Jupie B:B.-Podlavice Slovan Tajov 450,- 24.08.2006 31.7.2007
393 781214 VARHOLÁK Marián Družst. Olováry Baník V.Krtíš 450,- 24.08.2006 30.6.2007
394 800221 VARHOLÁK Miloš Družst. Olováry Baník V.Krtíš 450,- 24.08.2006 30.6.2007
395 550424 VARINSKÝ milan FK UŇATÍN OTJ Hont.Nemce 300,- 24.08.2006 30.6.2007
396 780708 VEĽKOV Pavol Družst. D.Lom Družst Senohrad 450,- 24.08.2006 31.1.2007
397 890528 VELTIŠ Daniel FK Trebostovo Družst. Blatnica 300,- 24.08.2006 31.7.2007
398 771105 VETRÁK Ján Iskra Hnúšťa Družst. Klenovec 300,- 24.08.2006 31.7.2007
399 810711 VEVERICA Martin Agro Baník Dúbrava OŠK Svätý Kríž 450,- 24.08.2006 31.1.2007
400 830808 VIDA Peter FK 85 Rakytovce Iskra H.Pršany 300,- 24.08.2006 30.6.2007
401 670428 VINCENT Peter PS Hliník n.Hr. FO Lovča 300,- 24.08.2006 30.6.2007
402 861010 VIŠŇA Michal Slovan Vidina Slovan Tomášovce 300,- 24.08.2006 30.6.2007
403 910928 VLAČUHA Stanislav Tatran Harmanec Metalservis Králiky 200,- 24.08.2006 30.6.2007
404 890207 VODIČKA Martin Tatran NAO L.Mikuláš OŠK Svätý Kríž 300,- 24.08.2006 30.6.2007
405 891110 VOJTECH Miroslav ŠKM Savon B.B. Družst. Priechod 200,- 24.08.2006 30.6.2007
406 850330 VRLÍK Michal Štart Lip. Ján Agro Baník Dúbrava 150,- 24.08.2006 31.7.2007
407 781228 VRTICH Branislav OŠK Lisková Družst. Lip.Štiavnica 300,- 24.08.2006 31.1.2007
408 781107 WIESINGER Pavel Jupie B:B.-Podlavice Slovan Tajov 450,- 24.08.2006 31.7.2007
409 870802 WOLINGER Patrik MFK Slovmag Revúca CSM Tisovec 450,- 24.08.2006 31.7.2007
410 830415 ZACHAR Gabriel Agro Veľ.Čalomija Baník V.Krtíš 450,- 24.08.2006 30.6.2007
411 900711 ZÁSLAV Štefan Tatran Harmanec Metalservis Králiky 200,- 24.08.2006 30.6.2007
412 800728 ZÁTEK Milan KINEX Bytča TJ Dlhé Pole 300,- 24.08.2006 31.7.2007
413 660524 ZATYKO Jozef Baník V.Krtíš Družst Olováry 450,- 24.08.2006 31.1.2007
414 810317 ZAWISZA Aleš Sokol Beňadiková ŠK Záv. Poruba 450,- 24.08.2006 30.6.2007
415 900928 ZÁZRIVEC Róbert Sokol Medzibrod Biotika SL.Ľupča 300,- 24.08.2006 30.6.2007
416 680308 ZBOŇAK Miroslav MŠK Námestovo Oravan Rabča 450,- 24.08.2006 31.1.2007
417 720729 ZELEŇAK Vladimír Sandrik D.Hámre Tatran Bzenica 450,- 24.08.2006 30.6.2007
418 840203 ZEMKO Tomáš ŠK Záv. Poruba OFK Podtúreň 450,- 24.08.2006 30.6.2007
419 710705 ZLEJŠÍ Stanislav OŠK Istebné Družst. Žaškov 450,- 24.08.2006 ZH
420 860418 ZOLNAY Arnold Družst Sklabina ZAEL M. Kameň 450,- 24.08.2006 31.1.2007
421 700218 ZUZIN Vladimír Družst. D.Lom Družst. Senohrad 450,- 24.08.2006 31.7.2007
422 901219 ŽIDEK Tomáš FK Nesluša MŠK K.N.Mesto 200,- 24.08.2006 30.6.2007
423 830817 ŽIGMUND Andrej FK Strečno OŠK Snežnica 450,- 24.08.2006 31.1.2007
424 721118 ŽOFAJ Anton Oravan Or.Jasenica Tatran Klín 450,- 24.08.2006 30.6.2007
425 890818 ŽULKO Ján Družst Sklabiňa Lok. ŽOS Vrútky 300,- 24.08.2006 30.6.2007

schválené prestupy









P.č. rodné číslo priezvisko, meno odkiaľ
materský oddiel
kam nový oddiel SK dátum podľa článku pozn.
1 880601 ADAMČEK Peter Tatran Harmanec Metalservis Králiky 300,- 24.8.2006 11/1
2 870416 ADAMČÍK Radoslav Jednota Bánová FK Trebostovo 450,- 24.8.2006 11/1
3 880116 ADAMICKÝ Marek Tatran Breznička Baník Kalinovo 300,- 24.8.2006 11/1
4 860919 ALBERT Miroslav Sklotatran Poltár Družst. Hr.Ves 450,- 24.8.2006 11/1
5 881112 ANTAL Vojtech ŠM Blhovce FC 98 Hajnačka 300,- 24.8.2006 11/1
6 800106 BABIAK Miroslav OŠK D.Niva Družst. Podzámčok 300,- 24.8.2006 11/1
7 880906 BALKO Marián ZAEL M.Kameň Banik V. Krtíš 300,- 24.8.2006 11/1
8 751006 BALOG Pavol FK Veľký Blh TJ Uz. Panica 450,- 24.8.2006 11/1
9 850910 BAROCHOVSKÝ Marek MFK Lok.Zvolen Slovan Agro.Budča 450,- 24.8.2006 11/1
10 870618 BELLA Jozef Agro Baník Dúbrava OŠK S.Kríž 450,- 24.8.2006 11/1
11 880602 BELOVEC Ján FK Fiľak. Kováče OŠK Radzovce 450,- 24.8.2006 11/1
12 750330 BENČAŤ Peter IZOMAT N.Baňa ŠK Rudno n.Hr. 450,- 24.8.2006 11/1
13 880923 BENČO Tomáš Družst.Lipt. Štiavnica Družst.Lipt.Štiavnička 300,- 24.8.2006 11/1
14 630414 BLAHUŠIAK Ján FK Trebostovo Sokol Stankovany 450,- 24.8.2006 11/1
15 560824 BOSÁK Ján OŠK Sása Družst. Dačov Lom 450,- 24.8.2006 11/1
16 730607 BRINDZÁK Elemír FK Veľký Blh TJ Uz. Panica 450,- 24.8.2006 11/1
17 881023 BRODZIANSKY Jozef Sandrik D.Hámre IZOMAT N.Baňa 450,- 24.8.2006 11/1
18 871027 BÚCI Pavol PS Hliník n.Hr. Sokol D.Ždaňa 300,- 24.8.2006 11/1
19 871027 BÚCI Peter PS Hliník n.Hr. Sokol D.Ždaňa 300,- 24.8.2006 11/1
20 900730 BUCHA Ladislav Istrobanka Rajec Družst. Zbýňov 300,- 24.8.2006 11/1
21 881224 CAGARA Lukáš Družst. Belá FK Trebostovo 450,- 24.8.2006 11/1
22 810611 CAPKO Miloš MŠK K.N.Mesto Slovan Povina 450,- 24.8.2006 11/1
23 890725 CIBUĽA Zdenko Slovan Hr.Zalužany Družst. Hr.Ves 450,- 24.8.2006 11/1
24 840506 CÚTH Tomáš OŠK D.Niva OŠK Babiná 300,- 24.8.2006 11/1
25 890208 ČAPLA Lukáš Lok. ŽOS Vrútky FK Trebostovo 450,- 24.8.2006 11/1
26 880708 ČIERNIK Jakub Poľana Hubová OŠK Ludrová 350,- 24.8.2006 11/1
27 871128 ČILIAK Lukáš ŠKF ZŤS VTJ Martin Družst.Drážkovce 450,- 24.8.2006 11/1
28 910123 ČUBOŇ Tomáš Polom Raková Slávia Staškov 300,- 24.8.2006 11/1
29 840625 DACHO Ján Slovmag Revúca CSM Tisovec 450,- 24.8.2006 11/1
30 870529 DANČO Miroslav Družst. Podzámčok OŠK D.Niva 300,- 24.8.2006 11/1
31 881020 DEBNÁR Jakub Hronsek FK Rakytovce 85 200,- 24.8.2006 11/1
32 900312 DEMKO Andrej PS Hliník n.Hr. Sokol D.Ždaňa 200,- 24.8.2006 11/1
33 890804 DENKO Tomáš PS Hliník n.Hr. Sokol D.Ždaňa 200,- 24.8.2006 11/1
34 780311 DIAN Boris Jupie B.B.-Podlavice Družst. Baláže 300,- 24.8.2006 11/1
35 860921 DOBRÍK Marek ŠK Selce Družst. Priechod 450,- 24.8.2006 11/1
36 710316 DONOVAL Ján TJ Železná Breznica Sokol Trnavá Hora 300,- 24.8.2006 11/1
37 881025 DOVIČÁK Martin IDOP Lipovec FK Strečno 300,- 24.8.2006 11/1
38 890111 DUHOVAN Ľubomír REaMOS K.Lieskovec Kysučan Ochodnica 300,- 24.8.2006 11/1
39 810726 ĎURICA Marián Cement.Liet.Lúčka AP Mojš.Lúčka 300,- 24.8.2006 11/1
40 800219 FÁNČI Miroslav Družst.Tur.Štiavnička Družst. Ďanová 450,- 24.8.2006 11/1
41 891003 FIGULI Igor PS Hliník n.Hr. Sokol D.Ždaňa 200,- 24.8.2006 11/1
42 691209 FIGULI Miroslav Družst. Klenovec CSM Tisovec 450,- 24.8.2006 11/1
43 650709 FILČIK Pavol CŠK Cinobaňa Slovan Tomášovce 600,- 24.8.2006 11/1
44 900702 FINTA Marek MŠK FOMAT Martin FK Trebostovo 450,- 24.8.2006 11/1
45 881031 FLEŠKO Andrej Družst. Tur.Štiavnička Javorina Podhorie 450,- 24.8.2006 11/1
46 731202 FUJÁK Rudolf REaMOS K.Lieskovec MŠK K.N.Mesto 450,- 24.8.2006 11/1
47 661224 FUJÁK Vladimír REaMOS K.Lieskovec MŠK K.N.Mesto 450,- 24.8.2006 11/1
48 821206 FUNGÁČ Michal Baník Kalinovo Tatran Breznička 300,- 24.8.2006 11/1
49 810515 GAČA Peter Bastav Revúca-Revúčka Obec Lubeník 450,- 24.8.2006 11/1
50 840813 GALBAVÝ Juraj ŠK D.Hričov OFK Ovčiarsko 300,- 24.8.2006 11/1
51 771107 GARAJ Matej FK 34 Brusno Mladosť Lučatín 450,- 24.8.2006 11/1
52 790508 GAŠPAR Michal Inter Zvolen Družst. Str.Plachtince 450,- 24.8.2006 11/1
53 870924 GAŽO Marián FK Šalková ŠK Kremnička 450,- 24.8.2006 11/1
54 900213 GELATKA Branislav Družst. Hôrky ŠK Podhorie 200,- 24.8.2006 11/1
55 910513 GERA Filip Snaha Zborov n.Bystr. FK Čadca 300,- 24.8.2006 11/1
56 881216 GOLIAN Lukáš ZAEL M.Kameň FK Bušince 300,- 24.8.2006 11/1
57 911006 GUŠTAFÍK Marek Tatran NAO L.Mikuláš OŠK S.Kríž 300,- 24.8.2006 11/1
58 770415 HAJNÍK Milan Slovan Vadičov ŠK Radoľa 450,- 24.8.2006 11/1
59 880826 HALAMA Tomáš Slovan Agro.Budča Prameň Kováčová 300,- 24.8.2006 11/1
60 730310 HANOVEC Dominik Jednota Bánová VTJ Raj.Teplice-Konská 450,- 24.8.2006 11/1
61 850610 HARAZÍN František Dynamo Príbovce Družst. Valča 450,- 24.8.2006 11/1
62 881215 HAŠKO Ján ŠK Selce Sandrik D.Hámre 450,- 24.8.2006 11/1
63 780801 HAVRAN Ján IZOMAT N.Baňa Sokol Tek.Breznica 450,- 24.8.2006 11/1
64 880712 HENZEL Erik PS Hliník n.Hr. SokolD.Ždaňa 200,- 24.8.2006 11/1
65 800806 HERIC Peter ŠK Selce Družst. Baláže 300,- 24.8.2006 11/1
66 821110 HLOŠKA Tomáš Družst. V.Teriakovce Družst. Klenovec 450,- 24.8.2006 11/1
67 820519 HOMOLA Michal IZOMAT N.Baňa Sokol Tekov.Breznica 450,- 24.8.2006 11/1
68 830328 HORČÍK Jaroslav Iskra Utekáč Cement.Liet.Lúčka 450,- 24.8.2006 11/1
69 880201 HRUŠKA Miroslav FK Kotr.Lúčka OŠK Nededza 300,- 24.8.2006 11/1
70 890103 HÚSKA Ondrej Družst. Valča Turčan Košťany n.Tur. 300,- 24.8.2006 11/1
71 870616 CHOBOT Jozef Družst. Hôrky ŠK Podhorie 300,- 24.8.2006 11/1
72 861229 CHOVANEC Anton Pokrok St.Bystrica Spartak Radôstka 450,- 24.8.2006 11/1
73 800813 CHYTIL Martin Kysučan Korňa Slovan Podvysoká 450,- 24.8.2006 11/1
74 811128 ILIAŠ Martin FK Rakytovce 85 ŠK Badín 450,- 24.8.2006 11/1
75 880519 ILLEŠ Lukáš MFK Žarnovica Klas H.Hámre 300,- 24.8.2006 11/1
76 870716 JANIGA Ivan VTJ ZŤS Martin Družst. Sklabiňá 450,- 24.8.2006 11/1
77 810313 JÁNOŠÍK Radoslav SŠM Boľkovce Tatran Lipovany 300,- 24.8.2006 11/1
78 880907 JANOŠKA Matej Družst. Hôrky ŠK Podhorie 300,- 24.8.2006 11/1
79 910718 JANOTA Michal Družst. Medzibrodie OŠK Bziny 450,- 24.8.2006 11/1
80 880909 JANOTÍK Luboš FC Or. Podzámok OŠK Bziny 450,- 24.8.2006 11/1
81 900601 JAVORSKÝ Marek FK Vyhne Sitno Ban.Štiavnica 400,- 24.8.2006 11/1
82 841111 JURÁŇ Branislav Blatná Habovka Roháče Zuberec 450,- 24.8.2006 11/1
83 720822 JURINA Peter FK 34 Brusno Part. Č.Balog 300,- 24.8.2006 11/1
84 871220 KADLÓT Patrik OŠK Radzovce FK Fiľak. Kováče 450,- 24.8.2006 11/1
85 880302 KAMENSKÝ Radoslav Hronsek FK Rakytovce 85 200,- 24.8.2006 11/1
86 690601 KAPUSTA Marián FK Rakytovce 85 Iskra H.Pršany 300,- 24.8.2006 11/1
87 771210 KARÁSEK Ján Baník Kalinovo Tatran Breznička 300,- 24.8.2006 11/1
88 821022 KARKALÍK Michal ŠK OU Hrochoť Družst.Dúbravica 450,- 24.8.2006 11/1
89 890802 KASÁK Stanislav Družst. Hôrky ŠK Podhorie 200,- 24.8.2006 11/1
90 801005 KAŠÍK Milan MŠK K.N.Mesto Slovan Povina 450,- 24.8.2006 11/1
91 881114 KAŠTAN Martin Zornička Jasenové Istrobanka Rajec 450,- 24.8.2006 11/1
92 850531 KATI Tomáš FC 98 Hajnačka ŠM Blhovce 450,- 24.8.2006 11/1
93 830429 KEREŠ Peter Prameň Kováčová Sokol Túrová 450,- 24.8.2006 11/1
94 830120 KINIK Peter Baník Agro Dúbrava Družst. Lipt.Štiavnica 300,- 24.8.2006 11/1
95 880601 KLAČKO Filip OFC Lipt.Sliače Družst.Lipt.Štiavnička 300,- 24.8.2006 11/1
96 880520 KLINČIK Ivan Sokol Nemecká FK 34 Brusno 200,- 24.8.2006 11/1
97 740626 KLOCÁŇ Považan Nez.Lúčka FK Strečno 300 24.8.2006 11/1
98 780117 KLOCAŇ Adam FK Strečno Považan Nezbud. Lúčka 300,- 24.8.2006 11/1
99 730718 KĽUKA Miloš Tatran Č.Balog Iskra Utekáč 450,- 24.8.2006 11/1
100 900510 KLUKA Otto Družst. Tachty FC 98 Hajnačka 300,- 24.8.2006 11/1
101 710623 KOHÚT Dušan ŠK OPL Poniky Družst. Dúbravica 600,- 24.8.2006 11/1
102 910828 KOLIBAČ Marián Kysučan Ochodnica REaMOS K.Lieskovec 300,- 24.8.2006 11/1
103 880925 KORBEĽ Maroš MFK ZAEL M.Kameň FK Bušince 300,- 24.8.2006 11/1
104 830523 KORBEL Peter IZOMAT N.Baňa ŠK Rudno n.Hr. 450,- 24.8.2006 11/1
105 790716 KOSTIVIAR Juraj ŠK Selce Družst. Baláže 300,- 24.8.2006 11/1
106 870128 KOŠA Martin Družst. Hôrky ŠK Podhorie 300,- 24.8.2006 11/1
107 790902 KOVÁCS Zsolt Družst. Vrbovka TJ Nenince 450,- 24.8.2006 11/1
108 830111 KUBA Zdenko OŠK Baník Stráňavy AP Mojšova Lúčka 300,- 24.8.2006 11/1
109 811210 KUBÍK Miloš Jednota Bánová AP Mojšova Lúčka 300,- 24.8.2006 11/1
110 880118 KUBOŠ Marek Družst.Krivá FK Nižná 450,- 24.8.2006 11/1
111 770821 KUBOVÝ Róbert Tatran Sučany Družst. Ďanová 450,- 24.8.2006 11/1
112 780923 KULICH Róbert Družst. Hr.Dúbrava Agro Ostrá Lúka 300,- 24.8.2006 11/1
113 811027 KURČÍK Vladimír Baník Kalinovo Tatran Breznička 300,- 24.8.2006 11/1
114 820131 KYSELA Miroslav Rozvoj Mojš Slovan Ladonhora-Vadičov 300,- 24.8.2006 11/1
115 881209 KYZEK Jakub Družst.Hr.Ves Slovan Hr.Zalužany 300,- 24.8.2006 11/1
116 860918 LASIČKA Michal ŠK D.Hričov OFK Ovčiarsko 300,- 24.8.2006 11/1
117 800417 LESKO Eduard Družst. Hr. Ves FK V.Blh 450,- 24.8.2006 11/1
118 880310 LIBIAK Ján Tatran Harmanec Metalservis Králiky 300,- 24.8.2006 11/1
119 750605 LIPINSKÝ Maroš Lok.SEZ Kráľovany MŠK FOMAT Martin 300,- 24.8.2006 11/1
120 880516 LIŠKA Martin ŠK Kremnička ŠKM Savon B.Bystrica 200,- 24.8.2006 11/1
121 690826 LÍŠKA Oto Družst. Valča Slovan Žabokreky 450,- 24.8.2006 11/1
122 870508 LÍŠKA Peter MFK Lok.Zvolen Tatran VLM Pliešovce 300,- 24.8.2006 11/1
123 880410 LONGAUER Tomáš ŠK Kremnička ŠKM Savon B.Bystrica 200,- 24.8.2006 11/1
124 881030 LUCIAK Radoslav OŠK Rudina Slovan Rudinská 450,- 24.8.2006 11/1
125 760426 LUČANSKÝ Mário ŠKF ZŤS VTJ Martin Slovan Bystrička 450,- 24.8.2006 11/1
126 690702 LUKAŠ Miroslav CSM Tisovec MFK Jelšava 300,- 24.8.2006 11/1
127 880802 LULÁK Michal KINEX Bytča OFK Kotešová 300,- 24.8.2006 11/1
128 880901 LUPTÁK Bohúš MFK D.Kubín Poľana Malatiná 300,- 24.8.2006 11/1
129 880627 MAČKO Anton Javorina Podhradie Tatran Sučany 450,- 24.8.2006 11/1
130 831107 MADERKA Ján Agro Baník Dúbrava Družst. Likavka 450,- 24.8.2006 11/1
131 881211 MAKÓNY Marek Hronsek FK Rakytovce 85 200,- 24.8.2006 11/1
132 900926 MALIŠ Radoslav PS Hliník n.Hr. Sokol D.Ždaňa 200,- 24.8.2006 11/1
133 911219 MASÁR Jaroslav ŠK Petrovice KINEX Bytča 300,- 24.8.2006 11/1
134 740403 MASLEN Vladimír IZOMAT N.Baňa ŠK Voznica 300,- 24.8.2006 11/1
135 880716 MASLO Marek Družst.Lipt.Štiavnička OŠK Ludrová 350,- 24.8.2006 11/1
136 800705 MATÉ Tomáš Družst. Tachty Družst. Veľ.Teriakovce 400,- 24.8.2006 11/1
137 840405 MATEJÍK Marián Juventus ZA - Závodie Považan Nezbud. Lúčka 450 24.8.2006 11/1
138 790220 MATEJOV Peter MFK Žarnovica Part.Ostrý Grúň 300,- 24.8.2006 11/1
139 900326 MEDVECKÝ Martin Družst. Ďanová MŠK FOMAT Martin 200,- 24.8.2006 11/1
140 860908 MEDVEĎ Róbert Part. Č.Balog Tatran Č.Balog 300,- 24.8.2006 11/1
141 831027 MELICHER Martin Tatran Č.Balog Iskra Utekáč 450,- 24.8.2006 11/1
142 781028 MELICHERČÍK Július Magnezit Lovinobaňa ŠKP Detva 550,- 24.8.2006 11/1
143 870817 MELIŠÍK Patrik Družst.Hôrky ŠK Podhorie 300,- 24.8.2006 11/1
144 881016 MIČÍK Marián FK Kotr.Lúčka OŠK Nededza 450,- 24.8.2006 11/1
145 911029 MIHO Štefan ŠK Belá FK Terchová 300,- 24.8.2006 11/1
146 880913 MICHULEC Michal Družst. Medzibrodie OŠK Bziny 450,- 24.8.2006 11/1
147 751017 MORES Rastislav FK Nižná FC Or.Podzámok 300,- 24.8.2006 11/1
148 890615 MOSOR Tomáš Štart Dunajov Tatran Krásno n.Kys. 300,- 24.8.2006 11/1
149 670902 NAGY Zsolt OŠK Radzovce SC Čakanovce 450,- 24.8.2006 11/1
150 881124 NAJDEK Michal ŠK Kremnička ŠKM Savon B.Bystrica 200,- 24.8.2006 11/1
151 630426 NÁRODA Ján Slovan Hr.Zalužany Družst. Hr.Ves 450,- 24.8.2006 11/1
152 830110 NESTEŠ Ján FK Rakytovce 85 Družst. Dúbravica 300,- 24.8.2006 11/1
153 850130 OBEŠLA Martin FK Strečno Považan Nezbud. Lúčka 300,- 24.8.2006 11/1
154 800903 OBTULOVIČ Peter FK Nižná Družst. Krivá 450,- 24.8.2006 11/1
155 691021 OROSZ Pavol FK Veľký Blh TJ Uz. Panica 450,- 24.8.2006 11/1
156 800715 PÁL Ladislav Družst. Tachty FC 98 Hajnačka 450,- 24.8.2006 11/1
157 880715 PALAN Marek Tatran Harmanec Metalservis Králiky 300,- 24.8.2006 11/1
158 900507 PAULOV Tomáš Blatná Habovka Roháče Zuberec 300,- 24.8.2006 11/1
159 880303 PAVELICA Lukáš VTJ Tatran Turany Družst. Tur. Štiavnička 450,- 24.8.2006 11/1
160 880315 PAVLOVE Miroslav FK Žiar n.Hr. OŠK Lutila 200,- 24.8.2006 11/1
161 721117 PAZÚRIK Peter ŠK Tvrdošín Slovan Trstená 450,- 24.8.2006 11/1
162 870220 PEČOVSKÝ Erik Part. Č.Balog Tatran Č.Balog 300,- 24.8.2006 11/1
163 810418 PEJKO Marián FK 34 Brusno ŠK OU Hrochoť 450,- 24.8.2006 11/1
164 871227 PETRINEC Miroslav ŠK TEMPUS R.Sobota- FK Zacharovce 450,- 24.8.2006 11/1
165 731104 PETROK Marián CSM Tisovec Iskra Hnúšťa 600,- 24.8.2006 11/1
166 810522 PIAR Michal ŠK Selce ŠK OPL Poniky 300,- 24.8.2006 11/1
167 841120 PLAVEC Vladimír MFK Lok.Zvolen Prameň Kováčová 450,- 24.8.2006 11/1
168 810529 POLC Roman IZOMAT N.Baňa Sokol Tekov.Breznica 450,- 24.8.2006 11/1
169 840518 POLC Zdenko OŠK D.Niva OŠK Babiná 300,- 24.8.2006 11/1
170 801008 POLIAK Dušan Tatran Lipovany SŠM Boľkovce 300,- 24.8.2006 11/1
171 800208 POMAHAČ Martin FO Sebechleby OTJ Hon.Nemce 450,- 24.8.2006 11/1
172 700613 POPRAC Vladimír Baník Št.Bane Sitno Ban.Štiavnica 450,- 24.8.2006 11/1
173 540731 PRONAJ Pavol VTJ Tatran Turany Družst. Tur. Štiavnička 450,- 24.8.2006 11/1
174 841104 PSOTKA Michal Tesla L.Hrádok ŠK Zav.Poruba 450,- 24.8.2006 11/1
175 910328 PŠENKA Marián ŠKF ZŤS VTJ Martin Slovan Bystrička 300,- 24.8.2006 11/1
176 790522 PUKAN Slavomír ŠK Voznica Sandrik D.Hámre 450,- 24.8.2006 11/1
177 880630 PUPÍK Peter TJ Dlhé Pole KINEX Bytča 300,- 24.8.2006 11/1
178 910401 RABOVEC Anton ŠK Petrovce KINEX Bytča 300,- 24.8.2006 11/1
179 831221 RADEJOVSKÝ Michal IZOMAT N.Baňa Part. Veľká Lehota 300,- 24.8.2006 11/1
180 761111 RÁNO Radoslav Tatran Harmanec ŠK Montaplus Sásová 300,- 24.8.2006 11/1
181 751016 RÁZGA Luboš OŠK Ludrová Družst.Lipt.Štiavnička 500,- 24.8.2006 11/1
182 861207 REČKO Lukáš Junior Radvaň Družst. Lovčica-Trubín 300,- 24.8.2006 11/1
183 780407 RECH Norbert Družst. Olováry FK Vinica 450,- 24.8.2006 11/1
184 881220 RESUTÍK Dušan PS Hliník n.Hr. Sokol D.Ždaňa 200,- 24.8.2006 11/1
185 781014 RIAPOŠ Rastislav Junior Radvaň ŠK Heľpa 450,- 24.8.2006 11/1
186 890831 RUMAN Jakub IDOP Lipovec Lok.Žos Vrútky 300,- 24.8.2006 11/1
187 791108 RUSO Maroš Roma Revúca Obec Lubeník 300,- 24.8.2006 11/1
188 880620 RÝS Miroslav Tatran Harmanec Metalservis Králiky 300,- 24.8.2006 11/1
189 860415 SANISLO Gabriel Sklotatran Poltár Družst. Hr.Ves 450,- 24.8.2006 11/1
190 840404 SCHMIDT Ladislav Sokol Op.N.Ves Baník V. Krtíš 450,- 24.8.2006 11/1
191 780831 SILNÝ Tomáš FK Vyhne Družst.Slaska 300,- 24.8.2006 11/1
192 820127 SITARČÍK Peter Tatran Č.Balog Iskra Utekáč 450,- 24.8.2006 11/1
193 760113 SKOČIK Ján Slovan Magura Vavrečka Oravan Or.Jasenica 450,- 24.8.2006 11/1
194 870727 SKÝPALA Ján Sklotatran Poltár Družst. Hr.Ves 450,- 24.8.2006 11/1
195 860128 SLÁDOK Jakub Prameň Kováčová FK Zvol.Slatina 450,- 24.8.2006 11/1
196 860830 SLANÝ Martin MFK Lok.Zvolen PS Hliník n. Hr. 450,- 24.8.2006 11/1
197 880819 SLOBODNÍK Mikuláš Tatran Harmanec Metalservis Králiky 300,- 24.8.2006 11/1
198 670904 SMELAK Stanislav Sandrik D.Hámre Part.Ostrý Grúň 300,- 24.8.2006 11/1
199 770527 SOCHOR Roman Družst. Priechod ŠK Selce 450,- 24.8.2006 11/1
200 910630 SOPUCH Roman Družst.Or.Poruba MFK D.Kubín 300,- 24.8.2006 11/1
201 880425 SPODNIAK Michal ŠK Kremnička ŠKM Savon B.Bystrica 200,- 24.8.2006 11/1
202 900704 STANKOVIANSKY Ivan Snaha Ploštín TJ Iľanovo 300,- 24.8.2006 11/1
203 850502 STÍSKAL Marek Juventus ZA - Závodie Družst. Hôrky 300,- 24.8.2006 11/1
204 881220 STRANADEL Filip Spartak Radôstka FK Čadca 300,- 24.8.2006 11/1
205 691015 STRAPKO Miroslav Družst. Terany Slovan Dudince 450,- 24.8.2006 11/1
206 730925 STREČOK Peter ŠK Selce Družst. Baláže 300,- 24.8.2006 11/1
207 900412 STRÝČEK David Polom Raková Slovan Podvysoká 300,- 24.8.2006 11/1
208 870223 SUCHOMEL Miloš KINEX Bytča Štart VD V.Rovné 300,- 24.8.2006 11/1
209 690331 SUJA Vladimír Prameň D.Strehová Družst. Lehôtka 450,- 24.8.2006 11/1
210 690920 SVINČIAK Jozef CSM Tisovec MFK Jelšava 300,- 24.8.2006 11/1
212 911113 ŠEBÍK Dušan Tatran NAO L.Mikuláš OŠK S.Kríž 300,- 24.8.2006 11/1
213 890906 ŠEDA lukáš OŠK Ludrová Iskra Hrboltová 300,- 24.8.2006 11/1
214 751125 ŠEPÍK Pavol Obec Lubeník Bastav Revúca-Revúčka 300,- 24.8.2006 11/1
215 631216 ŠIMO Pavol Lok.SEZ Kráľovany Sokol Stankovany 450,- 24.8.2006 11/1
216 780805 ŠKAMLA Daniel Družst. Očová ŠK OU Hrochoť 450,- 24.8.2006 11/1
217 870323 ŠTEVOVE Ladislav OŠK Radzovce FK Fiľak. Kováče 450,- 24.8.2006 11/1
218 800110 ŠTIEVKO Martin OTJ Hont.Nemce Družst. Sebechleby 300,- 24.8.2006 11/1
219 881122 ŠUGAR Michal Fatran Varín Fatran D.Tižina 450,- 24.8.2006 11/1
220 870127 ŠULAJ Peter Junior Radvaň Družst. Priechod 450,- 24.8.2006 11/1
221 620123 ŠUPKA ivan IZOMAT N.Baňa ŠK Rudno n.Hr. 450,- 24.8.2006 11/1
222 741222 ŠURHOVNÝ Jozef KINEX Bytča FK Hliník 450,- 24.8.2006 11/1
223 740618 ŠVEC Marián Obec Lubeník MFK Jelšava 300,- 24.8.2006 11/1
224 900104 TARGOŠ Michal Štart Priekopa Lok.Žos Vrútky 300,- 24.8.2006 11/1
225 790419 ŤAŽKÝ Lambert FK Bušince Družst. Olováry 450,- 24.8.2006 11/1
226 900805 TEKEĽ Lukáš Blatná Habovka Roháče Zuberec 300,- 24.8.2006 11/1
227 660507 TEREN Pavel Slovan Dudince Družst. Terany 300,- 24.8.2006 11/1
228 740214 TICHÝ Miroslav FK Strečno Považan Nezbud. Lúčka 300,- 24.8.2006 11/1
229 830405 TISOŇ Miroslav Baník Kalinovo Tatran Breznička 300,- 24.8.2006 11/1
230 770112 TISOŇ Pavel Sklotatran Poltár Tatran Breznička 450,- 24.8.2006 11/1
231 890209 TOMČÁNI Tomáš PS Hliník n.Hr. Sokol D.Ždaňa 200,- 24.8.2006 11/1
232 900425 TÓTH Konrád SC Čakanovce FTC Fiľakovo 300,- 24.8.2006 11/1
233 720921 TÓTH Róbert FTC Fiľakovo SC Čakanovce 450,- 24.8.2006 11/1
234 830809 TRČAN Ján Slovan Tomášovce FK Stará Halič 300,- 24.8.2006 11/1
235 891026 TREBULA Stanislav MŠK FOMAT Martin Lok.Žos Vrútky 300,- 24.8.2006 11/1
236 900903 TUČEK Matúš ŠK Selce FK Šalková 400,- 24.8.2006 11/1
237 880426 TURÁK Róbert ŠK Kremnička ŠKM Savon B.Bystrica 200,- 24.8.2006 11/1
238 881026 TURČAK Lukáš REaMOS K.Lieskovec Kysučan Ochodnica 300,- 24.8.2006 11/1
239 861215 TURDY Peter Part. Súľov KINEX Bytča 450,- 24.8.2006 11/1
240 701128 TURSKÝ Miloslav Baník Št.Bane OŠK Rosina 450,- 24.8.2006 11/1
241 741207 UHLIARIK Anton TJ Ovčiarsko ŠK D.Hričov 450,- 24.8.2006 11/1
242 660529 ÚRADNÍK Marián ŠFK Sihla Iskra Utekáč 450,- 24.8.2006 11/1
243 881031 URBAN Tomáš KINEX Bytča FK Hliník 300,- 24.8.2006 11/1
244 820714 URVA Milan Štart Kokava n.Rim. Iskra Utekáč 300,- 24.8.2006 11/1
245 890813 VACULČIAK Jozef Tatran Breznička Baník Kalinovo 300,- 24.8.2006 11/1
246 780206 VALIGURA Miroslav ŠK OPL Poniky Metalservis Králiky 300,- 24.8.2006 11/1
247 870307 VALOVČAN Ján Slovan Tomášovce FK Stará Halič 300,- 24.8.2006 11/1
248 880301 VANÍK Martin Sokol Medzibrod Biotika Sl.Ľupča 300,- 24.8.2006 11/1
249 881217 VEREŠ Martin Družst. Belá MŠK FOMAT Martin 300,- 24.8.2006 11/1
250 880417 VICIAN Dominik OTJ Hont.Nemce Družst. Sebechleby 300,- 24.8.2006 11/1
251 640309 VIGAŠ Pavol FK Rakytovce 85 ŠK Badín 450,- 24.8.2006 11/1
252 880307 VIZÁR Róbert ŠKF ZŤS VTJ Martin Turčan Košťany n.Tur. 450,- 24.8.2006 11/1
253 890216 VLČEK Andrej MŠK K.N.Mesto FK Nesluša 200,- 24.8.2006 11/1
254 890228 VLČEK Maroš Lok.ŽOS Vrútky IDOP Lipovec 300,- 24.8.2006 11/1
255 901005 VLČEK Tomáš ŠKF ZŤS VTJ Martin MŠK FOMAT Martin 300,- 24.8.2006 11/1
256 651016 VOLF Jozef ŠK Lúčky - Kúpele OŠK Ludrová 450,- 24.8.2006 11/1
257 880917 VOLNA Martin Družs.Valča Turčan Košťany n.Tur. 300,- 24.8.2006 11/1
258 810621 ZADUBAN Peter TJ Ovčiarsko ŠK D.Hričov 450,- 24.8.2006 11/1
259 831005 ZACHAR Miroslav Baník Kalinovo Tatran Breznička 300,- 24.8.2006 11/1
260 830111 ZÁTEK Stanislav KINEX Bytča TJ Hlboké 450,- 24.8.2006 11/1
261 880114 ZAŤKO Marek Vinohrad Čebovce Banik V. Krtíš 300,- 24.8.2006 11/1
262 890102 ZBOŘIL Marek FK Rakytovce 85 Iskra H.Pršany 300,- 24.8.2006 11/1
263 880808 ZELINKA Vladimír PS Hliník n.Hr. Sokol D.Ždaňa 200,- 24.8.2006 11/1
264 890813 ZEMAN Matej Družst. Hôrky ŠK Podhorie 200,- 24.8.2006 11/1
265 881022 ZICH Matúš PS Hliník n.Hr. Sokol D.Ždaňa 200,- 24.8.2006 11/1
266 850108 ŽEMBERY juraj IZOMAT N.Baňa Sokol Tekov.Breznica 450,- 24.8.2006 11/1
267 690712 ŽLKOVAN Róbert ŠK Kremnička Biotika Sl.Ľupča 450,- 24.8.2006 11/1

zamietnuté podania









P.č. rodné číslo priezvisko, meno odkiaľ
materský oddiel
kam nový oddiel SK dátum podľa článku pozn.
1 900508 BUGÁŇ Lukáš REaMOS K.Lieskovec MŠK K.N.Mesto 200,- 24.08.2006 čl. 12 (P)
2 871128 MACAŠEK Peter OŠK Rudina TJ Divina 300,- 24.08.2006 čl. 12 (P)
3 900713 TICHÝ Denis REaMOS K.Lieskovec MŠK K.N.Mesto 200,- 24.08.2006 čl. 12 (P)

neprerokované podania









P.č. rodné číslo priezvisko, meno odkiaľ
materský oddiel
kam nový oddiel SK dátum porušenie čl. pozn.
1 880820 BARIČÁK Peter Junior Radvaň Kysučan Korňa 200,- 24.08.2006 čl. 4/2 (ZH)
2 791005 KATINA Branislav IZOMAT N.Baňa ŽITAVAN M.Lehota 300,- 24.08.2006 čl. 10 (H)
3 751130 KUBÁŠEK Milan ŠK Podbieľ Družst. Krivá 450,- 24.08.2006 čl. 10 (P)
4 871025 VLČEK Peter ŠKF ZŤS VTJ Martin Družst. Drážkovce 300,- 24.08.2006 čl. 3